Fort Resolution, Canada
Current Conditions -  °F | °C
As of 12:00 AM on Friday 31 Oct 2014 (Local Time) from CYHY Reporting Station
Few Clouds Few Clouds  
Wind Chill: 24°   Ceiling: Unl
Heat Index: 34°   Visibility: 15mi
Dew Point: 30°   Wind: 14mph
Humidity: 87%   Direction: 160°SSE
Pressure: 29.73"   Gusts: NA
Location:  61.17°N, 113.68°W
Report Text: CYHY 310600Z 16012KT 15SM FEW230 01/M01 A2973 RMK CI2 SLP077
Loading
Personal Weather Stations






























Interactive Weather Map
Tropical Storm Tracking
New forecast layout! Learn more

10-Day Weather Forecast

Advertisements
Track Severe Weather on mobile